Terminal Aerodrome Forecast
Issued by NWS

Home | Current Version | Previous Version | Text Only | Print | Product List | Glossary On
Versions: 1 2 3 4 5 6 7 8 9 10 11 12 13 14 15 16 17 18 19
000
FTUS46 KOTX 221738
TAFMWH
TAF
KMWH 221738Z 2218/2318 03005KT 1SM BR OVC002
     FM222000 19003KT 3SM BR OVC009
     FM230100 18003KT P6SM OVC060
     FM230900 19005KT P6SM VCSH BKN050 OVC100=

USA.gov is the U.S. government's official web portal to all federal, state and local government web resources and services.